Time;durP1;ratioP1;P1;durP2;ratioP2;P2;SDS_P1;SDS_P2;PMS_P1;PMS_P2;Temp;Humidity;BMP_temperature;BMP_pressure;BME280_temperature;BME280_humidity;BME280_pressure;Samples;Min_cycle;Max_cycle;Signal;HPM_P1;HPM_P2
2023/05/12 00:01:39;;;;;;;4.22;2.70;;;;;;;;;;5036580;28;20068;-58
2023/05/12 00:04:05;;;;;;;5.82;3.40;;;;;;;;;;5036125;28;20033;-58
2023/05/12 00:06:31;;;;;;;5.35;4.30;;;;;;;;;;5033303;28;20045;-58
2023/05/12 00:08:57;;;;;;;3.30;2.83;;;;;;;;;;5038668;28;20521;-58
2023/05/12 00:11:24;;;;;;;4.43;2.90;;;;;;;;;;5029484;28;20045;-58
2023/05/12 00:13:50;;;;;;;3.40;2.70;;;;;;;;;;5032875;28;20048;-58
2023/05/12 00:16:17;;;;;;;5.22;2.88;;;;;;;;;;5041066;28;20049;-59
2023/05/12 00:18:44;;;;;;;4.90;3.30;;;;;;;;;;5033761;28;20498;-59
2023/05/12 00:21:11;;;;;;;3.97;3.33;;;;;;;;;;5036381;28;20423;-59
2023/05/12 00:23:37;;;;;;;5.18;3.78;;;;;;;;;;5034653;28;20033;-59
2023/05/12 00:26:03;;;;;;;4.88;3.78;;;;;;;;;;5030979;28;20052;-59
2023/05/12 00:28:30;;;;;;;7.47;3.80;;;;;;;;;;5040729;28;20048;-59
2023/05/12 00:31:01;;;;;;;8.00;4.80;;;;;;;;;;5037254;28;20044;-59
2023/05/12 00:33:27;;;;;;;6.82;4.85;;;;;;;;;;5033807;28;20483;-58
2023/05/12 00:35:53;;;;;;;5.05;4.53;;;;;;;;;;5034907;28;20094;-58
2023/05/12 00:38:19;;;;;;;6.72;4.32;;;;;;;;;;5029289;28;20097;-58
2023/05/12 00:40:45;;;;;;;4.63;3.60;;;;;;;;;;5037853;28;20037;-58
2023/05/12 00:43:12;;;;;;;3.47;2.40;;;;;;;;;;5034082;28;20032;-59
2023/05/12 00:45:38;;;;;;;3.88;2.25;;;;;;;;;;5042250;28;20045;-59
2023/05/12 00:48:05;;;;;;;4.50;2.22;;;;;;;;;;5023684;28;20032;-59
2023/05/12 00:50:31;;;;;;;5.13;2.30;;;;;;;;;;5034386;28;20037;-59
2023/05/12 00:52:59;;;;;;;2.45;1.90;;;;;;;;;;5038702;28;20057;-59
2023/05/12 00:55:26;;;;;;;3.42;2.00;;;;;;;;;;5041603;28;20411;-59
2023/05/12 00:57:52;;;;;;;4.25;2.25;;;;;;;;;;5043635;28;20040;-59
2023/05/12 01:00:21;;;;;;;2.40;1.88;;;;;;;;;;5040799;28;20052;-59
2023/05/12 01:02:47;;;;;;;8.43;2.20;;;;;;;;;;5043776;28;20041;-59
2023/05/12 01:05:14;;;;;;;3.25;2.20;;;;;;;;;;5036083;28;20029;-59
2023/05/12 01:07:41;;;;;;;2.33;2.00;;;;;;;;;;5045442;28;20499;-59
2023/05/12 01:10:20;;;;;;;3.13;1.92;;;;;;;;;;5035969;28;20040;-59
2023/05/12 01:12:47;;;;;;;4.38;2.08;;;;;;;;;;5037694;28;20041;-59
2023/05/12 01:15:14;;;;;;;3.85;2.20;;;;;;;;;;5043709;28;20044;-59
2023/05/12 01:17:46;;;;;;;3.75;1.90;;;;;;;;;;5038810;28;20422;-59
2023/05/12 01:20:15;;;;;;;2.45;1.83;;;;;;;;;;5046658;28;20029;-59
2023/05/12 01:22:41;;;;;;;3.10;2.00;;;;;;;;;;5040311;28;20044;-60
2023/05/12 01:25:10;;;;;;;2.80;2.03;;;;;;;;;;5046983;28;20028;-59
2023/05/12 01:27:39;;;;;;;3.13;2.28;;;;;;;;;;5036178;28;20050;-59
2023/05/12 01:30:07;;;;;;;2.88;2.10;;;;;;;;;;5038737;28;20049;-59
2023/05/12 01:32:35;;;;;;;4.60;2.15;;;;;;;;;;5038092;28;20028;-59
2023/05/12 01:35:02;;;;;;;2.63;1.90;;;;;;;;;;5043714;28;20129;-59
2023/05/12 01:37:30;;;;;;;3.45;2.00;;;;;;;;;;5044840;28;20045;-59
2023/05/12 01:39:57;;;;;;;3.70;2.20;;;;;;;;;;5032474;28;20041;-59
2023/05/12 01:42:23;;;;;;;3.80;1.98;;;;;;;;;;5037903;28;20411;-59
2023/05/12 01:44:50;;;;;;;2.63;2.17;;;;;;;;;;5044306;28;20410;-59
2023/05/12 01:47:16;;;;;;;2.88;2.08;;;;;;;;;;5036861;28;20647;-58
2023/05/12 01:49:50;;;;;;;6.22;3.25;;;;;;;;;;5035045;28;20052;-59
2023/05/12 01:52:16;;;;;;;5.97;4.43;;;;;;;;;;5041049;28;20040;-60
2023/05/12 01:54:42;;;;;;;10.10;4.93;;;;;;;;;;5036870;28;20045;-58
2023/05/12 01:57:09;;;;;;;8.20;5.30;;;;;;;;;;5038549;28;20049;-58
2023/05/12 01:59:37;;;;;;;8.75;5.82;;;;;;;;;;5043802;28;20045;-59
2023/05/12 02:02:04;;;;;;;10.38;6.10;;;;;;;;;;5034962;28;20411;-59
2023/05/12 02:04:31;;;;;;;8.05;5.82;;;;;;;;;;5040674;28;20033;-59
2023/05/12 02:06:58;;;;;;;8.10;5.53;;;;;;;;;;5036345;28;20037;-58
2023/05/12 02:09:24;;;;;;;6.10;4.03;;;;;;;;;;5039357;28;20036;-59
2023/05/12 02:11:54;;;;;;;5.38;3.20;;;;;;;;;;5037564;28;20045;-59
2023/05/12 02:14:21;;;;;;;4.78;2.75;;;;;;;;;;5033247;28;20053;-59
2023/05/12 02:16:51;;;;;;;4.47;3.08;;;;;;;;;;5038035;28;20521;-59
2023/05/12 02:19:19;;;;;;;5.85;4.03;;;;;;;;;;5041831;28;20045;-59
2023/05/12 02:21:48;;;;;;;7.15;4.60;;;;;;;;;;5048656;28;20044;-58
2023/05/12 02:24:17;;;;;;;5.70;4.00;;;;;;;;;;5039066;28;20033;-59
2023/05/12 02:26:44;;;;;;;;;;;;;;;;;;5037690;28;20033;-59
2023/05/12 02:29:11;;;;;;;6.88;4.93;;;;;;;;;;5043117;28;19913;-59
2023/05/12 02:31:38;;;;;;;9.75;5.82;;;;;;;;;;5045549;28;20029;-59
2023/05/12 02:34:13;;;;;;;11.45;7.10;;;;;;;;;;5042626;28;20045;-59
2023/05/12 02:36:39;;;;;;;11.85;6.88;;;;;;;;;;5043132;28;20029;-59
2023/05/12 02:39:05;;;;;;;12.38;7.00;;;;;;;;;;5022242;28;20041;-58
2023/05/12 02:41:31;;;;;;;10.90;6.80;;;;;;;;;;5043685;28;20040;-59
2023/05/12 02:43:58;;;;;;;5.57;3.10;;;;;;;;;;5034238;28;20056;-58
2023/05/12 02:46:24;;;;;;;3.33;2.60;;;;;;;;;;5047356;28;20048;-58
2023/05/12 02:48:51;;;;;;;4.00;2.30;;;;;;;;;;5033546;28;20056;-58
2023/05/12 02:51:18;;;;;;;3.70;2.15;;;;;;;;;;5043046;28;20509;-59
2023/05/12 02:53:44;;;;;;;3.80;2.28;;;;;;;;;;5042795;28;20049;-59
2023/05/12 02:56:10;;;;;;;3.53;2.33;;;;;;;;;;5036415;28;20052;-59
2023/05/12 02:58:36;;;;;;;3.83;2.20;;;;;;;;;;5040228;28;20069;-59
2023/05/12 03:01:03;;;;;;;4.88;2.35;;;;;;;;;;5035340;28;20529;-59
2023/05/12 03:03:29;;;;;;;4.00;2.45;;;;;;;;;;5039818;28;20435;-59
2023/05/12 03:05:56;;;;;;;3.83;2.67;;;;;;;;;;5040682;28;20052;-59
2023/05/12 03:08:22;;;;;;;5.50;3.28;;;;;;;;;;5040258;28;20037;-59
2023/05/12 03:10:48;;;;;;;4.25;2.90;;;;;;;;;;5042727;28;20041;-59
2023/05/12 03:13:14;;;;;;;4.60;3.00;;;;;;;;;;5046355;28;20411;-59
2023/05/12 03:15:40;;;;;;;7.75;3.25;;;;;;;;;;5013155;28;20033;-59
2023/05/12 03:18:07;;;;;;;4.93;3.30;;;;;;;;;;5032391;28;20049;-59
2023/05/12 03:20:33;;;;;;;5.88;3.42;;;;;;;;;;5023872;28;20052;-59
2023/05/12 03:22:59;;;;;;;4.43;3.45;;;;;;;;;;5039827;28;20029;-59
2023/05/12 03:25:25;;;;;;;6.78;4.18;;;;;;;;;;5036966;28;20042;-58
2023/05/12 03:27:52;;;;;;;4.68;3.75;;;;;;;;;;5028498;28;20403;-59
2023/05/12 03:30:19;;;;;;;5.38;3.15;;;;;;;;;;5036190;28;20041;-58
2023/05/12 03:32:45;;;;;;;4.75;2.55;;;;;;;;;;5036601;28;20048;-58
2023/05/12 03:35:11;;;;;;;3.47;2.80;;;;;;;;;;5034070;28;20491;-60
2023/05/12 03:37:37;;;;;;;3.03;2.30;;;;;;;;;;5038608;28;20056;-58
2023/05/12 03:40:05;;;;;;;5.50;2.40;;;;;;;;;;5041729;28;20033;-59
2023/05/12 03:42:31;;;;;;;4.53;2.22;;;;;;;;;;5036451;28;20048;-59
2023/05/12 03:44:57;;;;;;;3.33;2.28;;;;;;;;;;5038891;28;20032;-58
2023/05/12 03:47:24;;;;;;;3.80;2.40;;;;;;;;;;5038708;28;20060;-58
2023/05/12 03:49:50;;;;;;;5.15;3.05;;;;;;;;;;5040334;28;20529;-59
2023/05/12 03:52:16;;;;;;;9.27;4.35;;;;;;;;;;5035990;28;20049;-59
2023/05/12 03:54:44;;;;;;;6.55;2.97;;;;;;;;;;5038717;28;20034;-59
2023/05/12 03:57:11;;;;;;;3.90;2.75;;;;;;;;;;5037421;28;20045;-59
2023/05/12 03:59:37;;;;;;;3.15;2.67;;;;;;;;;;5035673;28;20030;-59
2023/05/12 04:02:06;;;;;;;4.43;2.30;;;;;;;;;;5038159;28;20060;-59
2023/05/12 04:04:32;;;;;;;4.78;3.40;;;;;;;;;;5038570;28;20041;-59
2023/05/12 04:06:58;;;;;;;4.85;3.47;;;;;;;;;;5035883;28;20049;-59
2023/05/12 04:09:24;;;;;;;3.90;2.53;;;;;;;;;;5040511;28;20033;-59
2023/05/12 04:11:50;;;;;;;4.25;2.30;;;;;;;;;;5041234;28;20514;-59
2023/05/12 04:14:17;;;;;;;4.13;2.20;;;;;;;;;;5028816;28;20495;-59
2023/05/12 04:16:43;;;;;;;3.38;2.65;;;;;;;;;;5036968;28;20430;-59
2023/05/12 04:19:09;;;;;;;12.23;6.18;;;;;;;;;;5030671;28;20042;-58
2023/05/12 04:21:35;;;;;;;16.02;8.93;;;;;;;;;;5039214;28;20491;-58
2023/05/12 04:24:01;;;;;;;13.40;7.00;;;;;;;;;;5035675;28;20045;-58
2023/05/12 04:26:31;;;;;;;8.10;3.85;;;;;;;;;;5037114;28;20049;-60
2023/05/12 04:28:57;;;;;;;4.95;3.00;;;;;;;;;;5038538;28;20049;-59
2023/05/12 04:31:24;;;;;;;5.45;3.25;;;;;;;;;;5038105;28;20048;-59
2023/05/12 04:33:50;;;;;;;9.93;5.50;;;;;;;;;;5034720;28;20150;-58
2023/05/12 04:36:16;;;;;;;8.20;4.22;;;;;;;;;;5036445;28;20037;-59
2023/05/12 04:38:43;;;;;;;4.97;2.50;;;;;;;;;;5039991;28;20041;-59
2023/05/12 04:41:10;;;;;;;6.32;2.97;;;;;;;;;;5040853;28;20383;-59
2023/05/12 04:43:36;;;;;;;5.43;2.20;;;;;;;;;;5039975;28;20040;-59
2023/05/12 04:46:03;;;;;;;7.20;4.50;;;;;;;;;;5036415;28;20047;-59
2023/05/12 04:48:29;;;;;;;7.22;3.67;;;;;;;;;;5033840;28;20049;-59
2023/05/12 04:50:59;;;;;;;4.70;3.25;;;;;;;;;;5037777;28;20045;-58
2023/05/12 04:53:26;;;;;;;4.55;2.53;;;;;;;;;;5041686;28;20036;-58
2023/05/12 04:55:52;;;;;;;3.22;2.42;;;;;;;;;;5032957;28;20034;-60
2023/05/12 04:58:18;;;;;;;3.80;2.35;;;;;;;;;;5040306;28;20068;-58
2023/05/12 05:00:46;;;;;;;5.07;2.40;;;;;;;;;;5034046;28;20036;-60
2023/05/12 05:03:12;;;;;;;2.97;2.40;;;;;;;;;;5034955;28;20025;-59
2023/05/12 05:05:38;;;;;;;5.88;2.88;;;;;;;;;;5023299;28;20411;-60
2023/05/12 05:08:04;;;;;;;3.50;2.47;;;;;;;;;;5040964;28;20049;-60
2023/05/12 05:10:31;;;;;;;3.97;2.70;;;;;;;;;;5040559;28;20247;-61
2023/05/12 05:12:57;;;;;;;3.33;2.70;;;;;;;;;;5044863;28;20053;-60
2023/05/12 05:15:23;;;;;;;4.25;2.72;;;;;;;;;;5041806;28;20052;-60
2023/05/12 05:17:50;;;;;;;5.88;3.22;;;;;;;;;;5043459;28;20045;-60
2023/05/12 05:20:16;;;;;;;5.38;3.40;;;;;;;;;;5024114;28;20487;-60
2023/05/12 05:22:43;;;;;;;7.00;3.70;;;;;;;;;;5025599;28;20492;-60
2023/05/12 05:25:10;;;;;;;7.22;3.70;;;;;;;;;;5041972;28;20033;-60
2023/05/12 05:27:37;;;;;;;5.25;3.88;;;;;;;;;;5037754;28;20037;-61
2023/05/12 05:30:10;;;;;;;7.03;4.13;;;;;;;;;;5005261;28;20037;-60
2023/05/12 05:32:39;;;;;;;5.95;4.50;;;;;;;;;;5032362;28;20047;-60
2023/05/12 05:35:07;;;;;;;7.05;4.72;;;;;;;;;;5010769;28;20064;-60
2023/05/12 05:37:36;;;;;;;10.38;6.00;;;;;;;;;;5019330;28;20052;-60
2023/05/12 05:40:03;;;;;;;9.73;5.60;;;;;;;;;;5018357;28;20414;-60
2023/05/12 05:42:30;;;;;;;12.77;7.82;;;;;;;;;;5026542;28;20042;-60
2023/05/12 05:44:56;;;;;;;12.70;7.63;;;;;;;;;;5029621;28;20487;-60
2023/05/12 05:47:23;;;;;;;11.88;7.95;;;;;;;;;;5031676;28;20081;-60
2023/05/12 05:49:50;;;;;;;13.40;7.72;;;;;;;;;;5043139;28;20391;-60
2023/05/12 05:52:16;;;;;;;14.68;8.73;;;;;;;;;;5040553;28;20021;-60
2023/05/12 05:54:42;;;;;;;16.92;9.85;;;;;;;;;;5040403;28;20042;-60
2023/05/12 05:57:09;;;;;;;17.35;10.00;;;;;;;;;;5035427;28;20060;-59
2023/05/12 05:59:35;;;;;;;17.63;9.77;;;;;;;;;;5035517;28;20048;-59
2023/05/12 06:02:03;;;;;;;17.30;10.60;;;;;;;;;;5039588;28;20052;-59
2023/05/12 06:04:29;;;;;;;16.45;9.45;;;;;;;;;;5010756;28;20042;-59
2023/05/12 06:06:57;;;;;;;17.10;9.35;;;;;;;;;;5018197;28;20361;-59
2023/05/12 06:09:23;;;;;;;16.23;9.15;;;;;;;;;;5036855;28;20483;-59
2023/05/12 06:11:49;;;;;;;16.45;9.50;;;;;;;;;;5033114;28;20041;-59
2023/05/12 06:14:16;;;;;;;17.10;9.95;;;;;;;;;;5024270;28;20044;-59
2023/05/12 06:16:42;;;;;;;15.95;8.57;;;;;;;;;;5027359;28;20045;-59
2023/05/12 06:19:08;;;;;;;16.63;8.90;;;;;;;;;;5040986;28;20396;-59
2023/05/12 06:21:34;;;;;;;17.90;9.73;;;;;;;;;;5045882;28;20029;-59
2023/05/12 06:24:00;;;;;;;17.15;9.07;;;;;;;;;;5034643;28;20049;-59
2023/05/12 06:26:26;;;;;;;15.30;8.50;;;;;;;;;;5033215;28;20411;-59
2023/05/12 06:28:52;;;;;;;18.08;9.82;;;;;;;;;;5038329;28;20037;-59
2023/05/12 06:31:18;;;;;;;14.02;8.38;;;;;;;;;;5038274;28;20049;-60
2023/05/12 06:33:46;;;;;;;16.30;10.05;;;;;;;;;;5025401;28;20048;-60
2023/05/12 06:36:13;;;;;;;18.05;9.52;;;;;;;;;;5050332;28;20041;-59
2023/05/12 06:38:39;;;;;;;14.93;8.85;;;;;;;;;;5043882;28;20044;-59
2023/05/12 06:41:05;;;;;;;14.13;8.60;;;;;;;;;;5045835;28;20041;-59
2023/05/12 06:43:31;;;;;;;12.85;7.95;;;;;;;;;;5038532;28;20044;-59
2023/05/12 06:45:57;;;;;;;13.43;7.85;;;;;;;;;;5034377;28;20044;-59
2023/05/12 06:48:24;;;;;;;10.60;6.90;;;;;;;;;;5044903;28;20029;-59
2023/05/12 06:50:50;;;;;;;10.75;6.75;;;;;;;;;;5046039;28;20063;-60
2023/05/12 06:53:17;;;;;;;12.13;7.53;;;;;;;;;;5030967;28;20055;-60
2023/05/12 06:55:45;;;;;;;13.55;8.23;;;;;;;;;;5030753;28;20060;-60
2023/05/12 06:58:11;;;;;;;14.25;7.40;;;;;;;;;;5038297;28;20040;-60
2023/05/12 07:00:37;;;;;;;11.75;8.10;;;;;;;;;;5039626;28;20049;-60
2023/05/12 07:03:03;;;;;;;14.02;8.82;;;;;;;;;;5043756;28;20534;-59
2023/05/12 07:05:29;;;;;;;16.83;9.00;;;;;;;;;;5035234;28;20651;-58
2023/05/12 07:07:55;;;;;;;14.32;8.80;;;;;;;;;;5035382;28;20037;-59
2023/05/12 07:10:21;;;;;;;13.57;8.27;;;;;;;;;;5039331;28;20049;-59
2023/05/12 07:12:48;;;;;;;13.15;8.68;;;;;;;;;;5035772;28;20067;-61
2023/05/12 07:15:14;;;;;;;15.23;9.52;;;;;;;;;;5038529;28;20096;-59
2023/05/12 07:17:40;;;;;;;12.80;8.65;;;;;;;;;;5033025;28;20041;-59
2023/05/12 07:20:07;;;;;;;14.20;8.27;;;;;;;;;;5041931;28;20041;-59
2023/05/12 07:22:33;;;;;;;12.43;7.82;;;;;;;;;;5035382;28;20035;-59
2023/05/12 07:24:59;;;;;;;14.15;8.02;;;;;;;;;;5021986;28;20057;-60
2023/05/12 07:27:26;;;;;;;12.45;7.95;;;;;;;;;;5039132;28;20097;-60
2023/05/12 07:29:52;;;;;;;11.85;7.22;;;;;;;;;;5040167;28;20044;-60
2023/05/12 07:32:18;;;;;;;15.05;8.98;;;;;;;;;;5032256;28;20041;-60
2023/05/12 07:34:44;;;;;;;12.15;8.10;;;;;;;;;;5051106;28;20044;-60
2023/05/12 07:37:10;;;;;;;10.32;7.45;;;;;;;;;;5034565;28;20057;-61
2023/05/12 07:39:37;;;;;;;11.35;7.38;;;;;;;;;;5038906;28;20514;-60
2023/05/12 07:42:03;;;;;;;12.63;8.20;;;;;;;;;;5044341;28;20407;-59
2023/05/12 07:44:32;;;;;;;14.38;7.97;;;;;;;;;;5045436;28;20024;-60
2023/05/12 07:46:58;;;;;;;11.68;7.88;;;;;;;;;;5041247;28;20024;-59
2023/05/12 07:49:24;;;;;;;14.10;8.52;;;;;;;;;;5037253;28;20210;-59
2023/05/12 07:51:50;;;;;;;13.10;8.27;;;;;;;;;;5037515;28;20438;-59
2023/05/12 07:54:16;;;;;;;10.75;7.13;;;;;;;;;;5036437;28;20057;-59
2023/05/12 07:56:43;;;;;;;10.80;7.78;;;;;;;;;;5040997;28;20405;-59
2023/05/12 07:59:09;;;;;;;9.80;6.35;;;;;;;;;;5039262;28;20040;-59
2023/05/12 08:01:35;;;;;;;9.27;6.30;;;;;;;;;;5041905;28;20033;-60
2023/05/12 08:04:01;;;;;;;11.50;6.63;;;;;;;;;;5038528;28;20048;-60
2023/05/12 08:06:28;;;;;;;8.40;5.50;;;;;;;;;;5039376;28;20483;-60
2023/05/12 08:08:56;;;;;;;7.78;5.72;;;;;;;;;;5045722;28;20044;-60
2023/05/12 08:11:23;;;;;;;7.68;5.65;;;;;;;;;;5037021;28;20048;-60
2023/05/12 08:13:49;;;;;;;8.80;5.50;;;;;;;;;;5036198;28;20045;-60
2023/05/12 08:16:16;;;;;;;9.25;5.05;;;;;;;;;;5033250;28;20029;-60
2023/05/12 08:18:42;;;;;;;8.75;5.53;;;;;;;;;;5039229;28;20504;-60
2023/05/12 08:21:08;;;;;;;7.25;4.97;;;;;;;;;;5036531;28;20525;-59
2023/05/12 08:23:36;;;;;;;6.60;4.95;;;;;;;;;;5035918;28;20467;-59
2023/05/12 08:26:03;;;;;;;6.47;5.05;;;;;;;;;;5039226;28;20040;-60
2023/05/12 08:28:30;;;;;;;7.97;4.82;;;;;;;;;;5039573;28;20048;-59
2023/05/12 08:30:57;;;;;;;8.43;5.68;;;;;;;;;;5031327;28;20519;-59
2023/05/12 08:33:23;;;;;;;6.90;4.72;;;;;;;;;;5030613;28;20450;-59
2023/05/12 08:35:49;;;;;;;6.55;4.60;;;;;;;;;;5022945;28;20373;-59
2023/05/12 08:38:16;;;;;;;5.45;4.43;;;;;;;;;;5038404;28;20683;-59
2023/05/12 08:41:11;;;;;;;5.95;4.50;;;;;;;;;;5029501;28;20029;-60
2023/05/12 08:43:42;;;;;;;5.95;4.53;;;;;;;;;;5030850;28;20037;-63
2023/05/12 08:46:10;;;;;;;6.10;4.68;;;;;;;;;;5048460;28;20045;-64
2023/05/12 08:48:38;;;;;;;7.15;5.00;;;;;;;;;;5041178;28;20037;-61
2023/05/12 08:51:11;;;;;;;8.32;5.20;;;;;;;;;;5035286;28;20060;-63
2023/05/12 08:53:39;;;;;;;5.45;4.07;;;;;;;;;;5039365;28;20055;-64
2023/05/12 08:56:07;;;;;;;6.10;4.45;;;;;;;;;;5016674;28;20034;-61
2023/05/12 08:58:37;;;;;;;6.97;3.70;;;;;;;;;;5035947;28;20056;-61
2023/05/12 09:01:05;;;;;;;4.47;3.65;;;;;;;;;;5031106;28;20045;-60
2023/05/12 09:03:33;;;;;;;5.50;4.18;;;;;;;;;;5037942;28;20483;-62
2023/05/12 09:05:59;;;;;;;5.10;4.40;;;;;;;;;;5046568;28;20037;-60
2023/05/12 09:08:29;;;;;;;5.60;4.35;;;;;;;;;;5045694;28;20531;-62
2023/05/12 09:10:57;;;;;;;5.05;4.20;;;;;;;;;;5029780;28;20053;-60
2023/05/12 09:14:03;;;;;;;6.25;4.25;;;;;;;;;;5032644;28;20054;-60
2023/05/12 09:16:36;;;;;;;5.10;4.30;;;;;;;;;;5035658;28;20049;-63
2023/05/12 09:19:03;;;;;;;4.88;4.00;;;;;;;;;;5026757;28;20044;-62
2023/05/12 09:21:29;;;;;;;5.18;4.28;;;;;;;;;;5048587;28;20439;-60
2023/05/12 09:23:56;;;;;;;5.97;4.47;;;;;;;;;;5043801;28;20056;-60
2023/05/12 09:26:24;;;;;;;5.38;4.50;;;;;;;;;;5045056;28;20498;-61
2023/05/12 09:29:02;;;;;;;7.15;4.63;;;;;;;;;;5049531;28;20041;-61
2023/05/12 09:31:28;;;;;;;5.03;4.15;;;;;;;;;;5042081;28;20037;-60
2023/05/12 09:33:55;;;;;;;5.47;4.40;;;;;;;;;;5034623;28;20040;-60
2023/05/12 09:36:23;;;;;;;5.40;4.38;;;;;;;;;;5040650;28;20049;-60
2023/05/12 09:39:03;;;;;;;6.35;4.60;;;;;;;;;;5038195;28;20041;-60
2023/05/12 09:41:33;;;;;;;4.78;3.95;;;;;;;;;;5045935;28;20040;-60
2023/05/12 09:44:00;;;;;;;5.90;4.53;;;;;;;;;;5042588;28;20057;-61
2023/05/12 09:46:26;;;;;;;6.40;4.78;;;;;;;;;;5047729;28;20024;-61
2023/05/12 09:48:56;;;;;;;6.40;4.22;;;;;;;;;;5042828;28;20056;-61
2023/05/12 09:51:23;;;;;;;5.22;4.20;;;;;;;;;;5039279;28;20113;-60
2023/05/12 09:53:49;;;;;;;5.43;4.25;;;;;;;;;;5041985;28;20093;-60
2023/05/12 09:56:16;;;;;;;6.68;4.70;;;;;;;;;;5036906;28;20034;-63
2023/05/12 09:58:45;;;;;;;7.20;4.22;;;;;;;;;;5047075;28;20036;-60
2023/05/12 10:01:13;;;;;;;5.35;3.85;;;;;;;;;;5034993;28;20042;-61
2023/05/12 10:03:44;;;;;;;4.78;3.72;;;;;;;;;;5041312;28;20032;-60
2023/05/12 10:06:15;;;;;;;4.30;3.33;;;;;;;;;;5042348;28;20507;-59
2023/05/12 10:08:46;;;;;;;4.60;3.72;;;;;;;;;;5039155;28;20048;-63
2023/05/12 10:11:13;;;;;;;5.75;3.45;;;;;;;;;;5044178;28;20053;-60
2023/05/12 10:13:39;;;;;;;4.32;3.30;;;;;;;;;;5044090;28;20033;-62
2023/05/12 10:16:06;;;;;;;5.43;3.13;;;;;;;;;;5036376;28;20064;-60
2023/05/12 10:18:33;;;;;;;3.58;2.65;;;;;;;;;;5041201;28;20044;-62
2023/05/12 10:21:00;;;;;;;3.22;2.58;;;;;;;;;;5037515;28;20052;-60
2023/05/12 10:23:27;;;;;;;2.90;2.60;;;;;;;;;;5040025;28;20495;-62
2023/05/12 10:26:00;;;;;;;3.60;2.75;;;;;;;;;;5041803;28;20029;-60
2023/05/12 10:28:29;;;;;;;4.53;2.78;;;;;;;;;;5035965;28;20037;-60
2023/05/12 10:30:57;;;;;;;5.38;3.05;;;;;;;;;;5041759;28;20052;-60
2023/05/12 10:33:23;;;;;;;3.97;3.03;;;;;;;;;;5034152;28;20040;-60
2023/05/12 10:35:51;;;;;;;5.68;3.10;;;;;;;;;;5035006;28;20514;-60
2023/05/12 10:38:21;;;;;;;3.88;3.25;;;;;;;;;;5039077;28;20395;-61
2023/05/12 10:40:51;;;;;;;;;;;;;;;;;;5037171;28;20033;-60
2023/05/12 10:43:21;;;;;;;4.05;2.70;;;;;;;;;;5042798;28;19919;-60
2023/05/12 10:46:06;;;;;;;2.20;1.98;;;;;;;;;;5044786;28;20033;-60
2023/05/12 10:48:32;;;;;;;3.22;2.13;;;;;;;;;;5044014;28;20478;-60
2023/05/12 10:51:10;;;;;;;2.53;1.92;;;;;;;;;;5042645;28;20037;-59
2023/05/12 10:53:38;;;;;;;2.72;2.53;;;;;;;;;;5039196;28;20569;-60
2023/05/12 10:56:05;;;;;;;3.40;2.30;;;;;;;;;;5045127;28;20045;-62
2023/05/12 10:58:31;;;;;;;3.03;2.22;;;;;;;;;;5035088;28;20537;-60
2023/05/12 11:01:05;;;;;;;3.03;2.30;;;;;;;;;;5043163;28;20057;-60
2023/05/12 11:03:34;;;;;;;2.25;2.00;;;;;;;;;;5034850;28;20376;-62
2023/05/12 11:06:03;;;;;;;4.20;2.20;;;;;;;;;;5040136;28;20033;-61
2023/05/12 11:08:30;;;;;;;2.20;2.00;;;;;;;;;;5039711;28;20042;-62
2023/05/12 11:10:57;;;;;;;2.10;1.90;;;;;;;;;;5038674;28;20773;-61
2023/05/12 11:13:23;;;;;;;1.95;1.83;;;;;;;;;;5041153;28;20037;-61
2023/05/12 11:15:50;;;;;;;2.53;2.20;;;;;;;;;;5037891;28;20041;-62
2023/05/12 11:18:20;;;;;;;2.50;1.90;;;;;;;;;;5039664;28;20037;-61
2023/05/12 11:20:46;;;;;;;2.33;2.13;;;;;;;;;;5039138;28;20045;-62
2023/05/12 11:23:24;;;;;;;1.80;1.70;;;;;;;;;;5035222;28;20030;-62
2023/05/12 11:25:50;;;;;;;1.70;1.60;;;;;;;;;;5036531;28;20396;-62
2023/05/12 11:28:16;;;;;;;1.70;1.60;;;;;;;;;;5037312;28;20048;-61
2023/05/12 11:30:52;;;;;;;2.42;1.70;;;;;;;;;;5039405;28;20037;-61
2023/05/12 11:33:21;;;;;;;1.60;1.50;;;;;;;;;;5045103;28;20021;-62
2023/05/12 11:35:48;;;;;;;3.03;1.40;;;;;;;;;;5035216;28;20061;-60
2023/05/12 11:38:18;;;;;;;1.60;1.50;;;;;;;;;;5040053;28;20061;-64
2023/05/12 11:40:45;;;;;;;2.53;1.33;;;;;;;;;;5033933;28;20053;-61
2023/05/12 11:43:14;;;;;;;1.70;1.60;;;;;;;;;;5036736;28;20036;-63
2023/05/12 11:45:40;;;;;;;1.58;1.38;;;;;;;;;;5036464;28;20044;-62
2023/05/12 11:48:12;;;;;;;10.25;2.50;;;;;;;;;;5044893;28;20052;-58
2023/05/12 11:50:40;;;;;;;6.32;1.90;;;;;;;;;;5037464;28;20056;-59
2023/05/12 11:53:13;;;;;;;3.92;1.65;;;;;;;;;;5037980;28;20045;-60
2023/05/12 11:55:52;;;;;;;1.60;1.45;;;;;;;;;;5038061;28;20518;-61
2023/05/12 11:58:29;;;;;;;1.88;1.67;;;;;;;;;;5037961;28;20053;-61
2023/05/12 12:00:56;;;;;;;3.13;2.00;;;;;;;;;;5033479;28;20041;-61
2023/05/12 12:03:23;;;;;;;4.00;2.38;;;;;;;;;;5035928;28;20040;-61
2023/05/12 12:06:02;;;;;;;3.05;2.63;;;;;;;;;;5037207;28;20052;-61
2023/05/12 12:08:28;;;;;;;2.70;2.50;;;;;;;;;;5035775;28;20040;-61
2023/05/12 12:10:55;;;;;;;3.47;2.63;;;;;;;;;;5038131;28;20052;-61
2023/05/12 12:13:22;;;;;;;3.45;2.70;;;;;;;;;;5032034;28;20028;-60
2023/05/12 12:15:49;;;;;;;4.38;3.03;;;;;;;;;;5036609;28;20038;-60
2023/05/12 12:18:16;;;;;;;3.33;2.45;;;;;;;;;;5037140;28;20032;-60
2023/05/12 12:20:42;;;;;;;3.10;2.75;;;;;;;;;;5035944;28;20037;-60
2023/05/12 12:23:08;;;;;;;4.80;3.05;;;;;;;;;;5037943;28;20060;-62
2023/05/12 12:25:35;;;;;;;4.90;3.25;;;;;;;;;;5039158;28;20376;-62
2023/05/12 12:28:01;;;;;;;3.25;2.80;;;;;;;;;;5047387;28;20024;-61
2023/05/12 12:30:27;;;;;;;3.78;2.97;;;;;;;;;;5042804;28;20033;-60
2023/05/12 12:32:53;;;;;;;3.47;3.17;;;;;;;;;;5036877;28;20209;-62
2023/05/12 12:35:20;;;;;;;6.72;3.28;;;;;;;;;;5038757;28;20048;-62
2023/05/12 12:37:50;;;;;;;4.78;2.83;;;;;;;;;;5040669;28;20052;-61
2023/05/12 12:40:18;;;;;;;3.85;2.90;;;;;;;;;;5009919;28;20045;-60
2023/05/12 12:42:44;;;;;;;3.50;2.95;;;;;;;;;;5038806;28;20414;-61
2023/05/12 12:45:12;;;;;;;4.55;2.80;;;;;;;;;;5026044;28;20491;-64
2023/05/12 12:47:38;;;;;;;3.00;2.65;;;;;;;;;;5042489;28;20041;-61
2023/05/12 12:50:06;;;;;;;3.15;2.53;;;;;;;;;;5045650;28;20048;-62
2023/05/12 12:52:32;;;;;;;3.28;2.75;;;;;;;;;;5046257;28;20033;-62
2023/05/12 12:54:58;;;;;;;5.07;2.95;;;;;;;;;;5036917;28;20064;-62
2023/05/12 12:57:25;;;;;;;2.80;2.50;;;;;;;;;;5033282;28;20033;-66
2023/05/12 12:59:51;;;;;;;2.50;2.30;;;;;;;;;;5029509;28;20423;-64
2023/05/12 13:02:17;;;;;;;2.38;2.13;;;;;;;;;;5036789;28;20057;-64
2023/05/12 13:04:44;;;;;;;2.40;2.17;;;;;;;;;;5040320;28;20041;-65
2023/05/12 13:07:10;;;;;;;2.65;2.33;;;;;;;;;;5031031;28;20384;-64
2023/05/12 13:09:37;;;;;;;2.90;2.20;;;;;;;;;;5035675;28;20037;-64
2023/05/12 13:12:04;;;;;;;4.75;2.50;;;;;;;;;;5039076;28;20044;-61
2023/05/12 13:14:30;;;;;;;2.47;2.28;;;;;;;;;;5033240;28;20037;-64
2023/05/12 13:16:57;;;;;;;2.88;2.40;;;;;;;;;;5028286;28;20044;-64
2023/05/12 13:19:23;;;;;;;4.10;2.40;;;;;;;;;;5045624;28;20053;-63
2023/05/12 13:21:49;;;;;;;6.30;4.07;;;;;;;;;;5026398;28;20410;-62
2023/05/12 13:24:16;;;;;;;5.10;3.10;;;;;;;;;;5047754;28;20060;-62
2023/05/12 13:26:42;;;;;;;3.65;2.58;;;;;;;;;;5035118;28;20035;-61
2023/05/12 13:29:08;;;;;;;3.10;2.75;;;;;;;;;;5030484;28;20048;-61
2023/05/12 13:31:34;;;;;;;3.10;2.40;;;;;;;;;;5037598;28;20427;-62
2023/05/12 13:34:01;;;;;;;4.93;2.60;;;;;;;;;;5041440;28;20116;-61
2023/05/12 13:36:27;;;;;;;3.22;2.17;;;;;;;;;;5042388;28;20506;-61
2023/05/12 13:38:53;;;;;;;2.42;2.17;;;;;;;;;;5037251;28;20045;-62
2023/05/12 13:41:19;;;;;;;2.67;2.38;;;;;;;;;;5035608;28;20044;-62
2023/05/12 13:43:45;;;;;;;2.83;2.40;;;;;;;;;;5030086;28;20511;-59
2023/05/12 13:46:12;;;;;;;6.13;2.13;;;;;;;;;;5035521;28;20411;-62
2023/05/12 13:48:38;;;;;;;2.65;2.40;;;;;;;;;;5036298;28;20041;-62
2023/05/12 13:51:04;;;;;;;3.05;2.75;;;;;;;;;;5031487;28;20092;-63
2023/05/12 13:53:31;;;;;;;2.78;2.47;;;;;;;;;;5034983;28;20033;-62
2023/05/12 13:55:57;;;;;;;2.88;2.50;;;;;;;;;;5036623;28;20040;-62
2023/05/12 13:58:23;;;;;;;6.97;3.20;;;;;;;;;;5033381;28;20391;-62
2023/05/12 14:00:49;;;;;;;6.32;3.20;;;;;;;;;;5041721;28;20624;-62
2023/05/12 14:03:15;;;;;;;4.72;3.30;;;;;;;;;;5043846;28;20524;-63
2023/05/12 14:05:41;;;;;;;5.20;4.05;;;;;;;;;;5045383;28;20055;-62
2023/05/12 14:08:07;;;;;;;2.67;2.40;;;;;;;;;;5042825;28;20041;-62
2023/05/12 14:10:34;;;;;;;3.25;2.45;;;;;;;;;;5038188;28;20041;-62
2023/05/12 14:13:00;;;;;;;3.00;2.10;;;;;;;;;;5042384;28;20495;-63
2023/05/12 14:15:26;;;;;;;5.00;2.97;;;;;;;;;;5044104;28;20064;-63
2023/05/12 14:17:53;;;;;;;3.03;2.20;;;;;;;;;;5045691;28;20066;-62
2023/05/12 14:20:19;;;;;;;3.58;2.35;;;;;;;;;;5043575;28;20044;-61
2023/05/12 14:22:45;;;;;;;2.17;1.98;;;;;;;;;;5051004;28;20033;-62
2023/05/12 14:25:11;;;;;;;128.65;73.57;;;;;;;;;;5045325;28;20037;-61
2023/05/12 14:27:37;;;;;;;38.15;18.88;;;;;;;;;;5040135;28;20025;-61
2023/05/12 14:30:06;;;;;;;4.32;3.03;;;;;;;;;;5039991;28;20041;-62
2023/05/12 14:32:33;;;;;;;1.73;1.55;;;;;;;;;;5052590;28;20048;-61
2023/05/12 14:34:59;;;;;;;1.60;1.20;;;;;;;;;;5045322;28;20044;-62
2023/05/12 14:37:25;;;;;;;1.20;1.10;;;;;;;;;;5044537;28;20036;-61
2023/05/12 14:39:54;;;;;;;1.90;1.40;;;;;;;;;;5039726;28;20044;-62
2023/05/12 14:42:20;;;;;;;2.60;1.40;;;;;;;;;;5035989;28;20491;-62